createdAt,value
2022-10-14T00:02:03.721Z,6.10
2022-10-14T00:05:05.830Z,5.83
2022-10-14T00:08:09.814Z,5.88
2022-10-14T00:11:14.286Z,5.85
2022-10-14T00:14:18.536Z,5.65
2022-10-14T00:17:20.586Z,5.82
2022-10-14T00:20:22.574Z,5.00
2022-10-14T00:23:25.157Z,5.50
2022-10-14T00:26:33.109Z,5.30
2022-10-14T00:29:34.780Z,5.40
2022-10-14T00:32:36.517Z,5.20
2022-10-14T00:35:38.162Z,5.07
2022-10-14T00:38:40.538Z,5.10
2022-10-14T00:41:42.870Z,5.00
2022-10-14T00:44:44.670Z,4.97
2022-10-14T00:48:17.983Z,4.75
2022-10-14T00:51:21.342Z,4.75
2022-10-14T00:54:32.102Z,4.70
2022-10-14T00:57:35.907Z,4.83
2022-10-14T01:00:39.218Z,4.78
2022-10-14T01:03:42.082Z,4.82
2022-10-14T01:06:49.796Z,4.50
2022-10-14T01:10:06.764Z,4.70
2022-10-14T01:13:26.990Z,4.53
2022-10-14T01:16:43.434Z,4.68
2022-10-14T01:20:02.024Z,4.50
2022-10-14T01:23:09.629Z,4.60
2022-10-14T01:26:47.122Z,4.53
2022-10-14T01:29:57.539Z,4.07
2022-10-14T01:33:23.675Z,4.15
2022-10-14T01:37:08.644Z,4.28
2022-10-14T01:40:17.785Z,4.50
2022-10-14T01:43:23.084Z,4.20
2022-10-14T01:46:27.203Z,4.20
2022-10-14T01:49:35.613Z,4.20
2022-10-14T01:52:47.368Z,4.03
2022-10-14T01:55:52.202Z,3.85
2022-10-14T01:58:55.219Z,3.78
2022-10-14T02:01:57.049Z,4.70
2022-10-14T02:04:58.946Z,3.97
2022-10-14T02:08:18.397Z,4.40
2022-10-14T02:11:23.020Z,4.43
2022-10-14T02:14:44.302Z,4.60
2022-10-14T02:17:57.113Z,4.45
2022-10-14T02:21:28.174Z,4.05
2022-10-14T02:24:35.550Z,4.50
2022-10-14T02:27:40.154Z,5.03
2022-10-14T02:30:50.164Z,4.97
2022-10-14T02:33:56.606Z,5.10
2022-10-14T02:37:06.255Z,4.95
2022-10-14T02:40:18.849Z,5.25
2022-10-14T02:43:20.660Z,4.95
2022-10-14T02:46:23.612Z,5.37
2022-10-14T02:49:29.180Z,4.97
2022-10-14T02:52:33.285Z,5.80
2022-10-14T02:55:38.157Z,5.22
2022-10-14T02:58:43.177Z,5.70
2022-10-14T03:01:47.537Z,5.15
2022-10-14T03:04:49.980Z,5.47
2022-10-14T03:07:52.273Z,5.25
2022-10-14T03:10:55.704Z,5.40
2022-10-14T03:13:58.181Z,5.30
2022-10-14T03:17:01.484Z,5.57
2022-10-14T03:20:07.650Z,5.50
2022-10-14T03:23:17.569Z,5.60
2022-10-14T03:26:22.443Z,5.47
2022-10-14T03:29:24.631Z,5.13
2022-10-14T03:32:43.674Z,5.40
2022-10-14T03:35:45.346Z,5.90
2022-10-14T03:38:50.937Z,5.50
2022-10-14T03:42:06.205Z,5.38
2022-10-14T03:45:16.135Z,5.18
2022-10-14T03:48:19.713Z,5.25
2022-10-14T03:51:21.681Z,5.10
2022-10-14T03:54:23.519Z,5.07
2022-10-14T03:57:26.325Z,5.40
2022-10-14T04:00:31.895Z,5.00
2022-10-14T04:03:52.779Z,4.80
2022-10-14T04:06:55.859Z,5.50
2022-10-14T04:09:57.664Z,5.28
2022-10-14T04:13:00.334Z,5.30
2022-10-14T04:16:09.891Z,5.30
2022-10-14T04:19:21.961Z,6.00
2022-10-14T04:22:25.136Z,7.40
2022-10-14T04:25:31.672Z,8.20
2022-10-14T04:28:38.510Z,7.80
2022-10-14T04:31:47.426Z,7.37
2022-10-14T04:34:49.498Z,7.32
2022-10-14T04:37:55.107Z,7.03
2022-10-14T04:40:59.331Z,6.53
2022-10-14T04:44:12.122Z,5.90
2022-10-14T04:47:20.717Z,6.65
2022-10-14T04:50:28.540Z,5.93
2022-10-14T04:54:02.413Z,6.80
2022-10-14T04:57:13.134Z,6.60
2022-10-14T05:00:16.949Z,7.03
2022-10-14T05:03:24.594Z,6.75
2022-10-14T05:06:28.896Z,6.75
2022-10-14T05:09:31.273Z,6.57
2022-10-14T05:12:33.809Z,6.47
2022-10-14T05:15:38.302Z,6.43
2022-10-14T05:18:46.997Z,6.97
2022-10-14T05:21:49.178Z,6.40
2022-10-14T05:24:59.278Z,6.72
2022-10-14T05:28:02.355Z,6.72
2022-10-14T05:31:05.427Z,7.10
2022-10-14T05:34:11.505Z,6.80
2022-10-14T05:37:16.044Z,7.05
2022-10-14T05:40:22.801Z,7.75
2022-10-14T05:43:31.786Z,7.28
2022-10-14T05:46:36.248Z,7.30
2022-10-14T05:49:41.189Z,7.82
2022-10-14T05:52:43.170Z,7.85
2022-10-14T05:55:51.755Z,7.50
2022-10-14T05:58:56.411Z,7.80
2022-10-14T06:01:58.248Z,7.38
2022-10-14T06:05:00.500Z,7.28
2022-10-14T06:08:05.206Z,7.97
2022-10-14T06:11:10.062Z,8.63
2022-10-14T06:14:11.959Z,7.38
2022-10-14T06:17:17.524Z,7.85
2022-10-14T06:20:20.066Z,7.60
2022-10-14T06:23:21.818Z,7.35
2022-10-14T06:26:23.529Z,7.50
2022-10-14T06:29:31.217Z,7.00
2022-10-14T06:32:32.990Z,7.00
2022-10-14T06:35:34.881Z,6.95
2022-10-14T06:38:36.733Z,7.43
2022-10-14T06:41:38.461Z,7.30
2022-10-14T06:44:40.359Z,7.20
2022-10-14T06:47:42.120Z,7.50
2022-10-14T06:50:44.134Z,7.13
2022-10-14T06:53:45.909Z,6.80
2022-10-14T06:56:47.593Z,6.90
2022-10-14T06:59:49.826Z,7.15
2022-10-14T07:02:51.566Z,6.80
2022-10-14T07:05:53.301Z,7.00
2022-10-14T07:08:55.021Z,6.15
2022-10-14T07:11:56.779Z,5.88
2022-10-14T07:14:58.566Z,6.15
2022-10-14T07:18:00.322Z,5.85
2022-10-14T07:21:04.063Z,5.47
2022-10-14T07:24:06.407Z,5.78
2022-10-14T07:27:09.543Z,5.25
2022-10-14T07:30:13.895Z,5.20
2022-10-14T07:33:19.120Z,4.68
2022-10-14T07:36:22.607Z,4.43
2022-10-14T07:39:25.874Z,4.50
2022-10-14T07:42:27.756Z,4.90
2022-10-14T07:45:35.206Z,4.40
2022-10-14T07:48:52.663Z,4.30
2022-10-14T07:51:58.748Z,4.20
2022-10-14T07:55:00.465Z,4.15
2022-10-14T07:58:02.136Z,3.65
2022-10-14T08:01:03.954Z,4.03
2022-10-14T08:04:05.771Z,3.90
2022-10-14T08:07:07.545Z,3.70
2022-10-14T08:10:09.283Z,3.20
2022-10-14T08:13:11.067Z,3.45
2022-10-14T08:16:42.453Z,2.85
2022-10-14T08:19:44.421Z,2.50
2022-10-14T08:22:46.249Z,2.53
2022-10-14T08:25:49.447Z,2.30
2022-10-14T08:28:51.540Z,2.20
2022-10-14T08:31:55.340Z,2.33
2022-10-14T08:34:57.105Z,2.30
2022-10-14T08:38:00.576Z,2.40
2022-10-14T08:41:17.657Z,2.40
2022-10-14T08:44:28.694Z,2.08
2022-10-14T08:47:41.933Z,2.00
2022-10-14T08:51:11.855Z,1.95
2022-10-14T08:54:25.314Z,2.10
2022-10-14T08:57:34.940Z,2.00
2022-10-14T09:00:36.893Z,2.00
2022-10-14T09:03:39.040Z,2.10
2022-10-14T09:06:44.517Z,2.10
2022-10-14T09:09:50.200Z,1.98
2022-10-14T09:12:54.791Z,1.95
2022-10-14T09:16:04.186Z,2.20
2022-10-14T09:19:30.698Z,1.98
2022-10-14T09:22:32.427Z,1.88
2022-10-14T09:25:35.255Z,2.00
2022-10-14T09:28:41.187Z,1.80
2022-10-14T09:31:42.972Z,1.60
2022-10-14T09:34:50.927Z,1.80
2022-10-14T09:37:53.323Z,1.73
2022-10-14T09:40:59.637Z,2.03
2022-10-14T09:44:26.048Z,1.60
2022-10-14T09:47:29.309Z,1.60
2022-10-14T09:50:42.828Z,1.70
2022-10-14T09:53:49.012Z,1.60
2022-10-14T09:56:59.521Z,1.60
2022-10-14T10:00:06.536Z,1.40
2022-10-14T10:03:08.364Z,1.20
2022-10-14T10:06:12.887Z,1.30
2022-10-14T10:09:20.122Z,1.25
2022-10-14T10:12:33.698Z,1.40
2022-10-14T10:15:35.504Z,1.40
2022-10-14T10:18:37.243Z,1.53
2022-10-14T10:21:39.004Z,1.63
2022-10-14T10:24:40.735Z,1.50
2022-10-14T10:27:48.856Z,1.65
2022-10-14T10:31:09.099Z,1.58
2022-10-14T10:34:52.496Z,1.37
2022-10-14T10:38:23.826Z,1.50
2022-10-14T10:41:31.442Z,1.80
2022-10-14T10:44:58.978Z,1.80
2022-10-14T10:48:21.142Z,1.85
2022-10-14T10:51:40.092Z,1.63
2022-10-14T10:54:51.269Z,1.75
2022-10-14T10:58:03.749Z,1.40
2022-10-14T11:01:36.948Z,1.70
2022-10-14T11:05:21.290Z,1.67
2022-10-14T11:09:07.948Z,1.87
2022-10-14T11:12:24.131Z,1.63
2022-10-14T11:15:32.150Z,1.65
2022-10-14T11:18:45.734Z,1.60
2022-10-14T11:22:32.176Z,1.70
2022-10-14T11:25:55.444Z,1.70
2022-10-14T11:29:04.505Z,1.45
2022-10-14T11:32:09.234Z,1.60
2022-10-14T11:35:45.125Z,1.42
2022-10-14T11:39:21.013Z,1.50
2022-10-14T11:42:38.741Z,1.60
2022-10-14T11:45:40.434Z,1.60
2022-10-14T11:48:46.289Z,1.70
2022-10-14T11:51:58.357Z,1.40
2022-10-14T11:55:14.643Z,1.50
2022-10-14T11:58:23.392Z,1.70
2022-10-14T12:01:34.193Z,1.50
2022-10-14T12:04:43.459Z,1.67
2022-10-14T12:07:58.785Z,1.40
2022-10-14T12:11:11.769Z,1.80
2022-10-14T12:14:27.880Z,1.50
2022-10-14T12:17:36.259Z,1.30
2022-10-14T12:20:47.105Z,1.50
2022-10-14T12:23:56.558Z,1.60
2022-10-14T12:27:02.086Z,1.50
2022-10-14T12:30:04.781Z,1.40
2022-10-14T12:33:10.605Z,1.80
2022-10-14T12:36:33.346Z,1.60
2022-10-14T12:39:41.989Z,1.50
2022-10-14T12:42:44.095Z,1.50
2022-10-14T12:46:10.349Z,1.63
2022-10-14T12:49:21.205Z,1.50
2022-10-14T12:52:34.156Z,1.30
2022-10-14T12:55:48.364Z,1.60
2022-10-14T12:59:01.306Z,1.40
2022-10-14T13:02:37.422Z,1.30
2022-10-14T13:05:42.851Z,1.48
2022-10-14T13:09:13.343Z,1.40
2022-10-14T13:12:21.321Z,1.30
2022-10-14T13:15:56.418Z,1.45
2022-10-14T13:19:02.369Z,1.47
2022-10-14T13:22:28.436Z,1.30
2022-10-14T13:25:33.534Z,1.40
2022-10-14T13:28:58.604Z,1.30
2022-10-14T13:32:12.328Z,1.40
2022-10-14T13:35:33.818Z,1.40
2022-10-14T13:38:36.244Z,1.60
2022-10-14T13:41:38.526Z,1.67
2022-10-14T13:44:40.367Z,1.38
2022-10-14T13:47:48.152Z,1.35
2022-10-14T13:51:11.321Z,1.30
2022-10-14T13:54:27.962Z,1.20
2022-10-14T13:57:53.566Z,1.40
2022-10-14T14:00:58.624Z,1.40
2022-10-14T14:04:00.875Z,1.80
2022-10-14T14:07:27.731Z,1.70
2022-10-14T14:10:26.503Z,1.58
2022-10-14T14:13:37.978Z,1.80
2022-10-14T14:17:02.402Z,1.70
2022-10-14T14:20:10.280Z,1.80
2022-10-14T14:23:13.025Z,1.90
2022-10-14T14:26:19.398Z,1.90
2022-10-14T14:29:25.456Z,2.20
2022-10-14T14:32:31.596Z,2.30
2022-10-14T14:35:33.463Z,2.40
2022-10-14T14:38:37.360Z,2.20
2022-10-14T14:41:39.438Z,2.22
2022-10-14T14:44:43.428Z,2.42
2022-10-14T14:47:47.530Z,2.58
2022-10-14T14:50:50.335Z,2.95
2022-10-14T14:53:54.996Z,2.30
2022-10-14T14:57:02.448Z,2.38
2022-10-14T15:00:06.874Z,2.47
2022-10-14T15:03:09.138Z,2.80
2022-10-14T15:11:02.779Z,2.50
2022-10-14T15:14:05.230Z,2.60
2022-10-14T15:17:33.494Z,2.65
2022-10-14T15:20:36.983Z,2.70
2022-10-14T15:23:43.028Z,2.22
2022-10-14T15:26:46.305Z,2.60
2022-10-14T15:30:21.307Z,3.17
2022-10-14T15:33:26.823Z,2.45
2022-10-14T15:36:32.005Z,2.80
2022-10-14T15:39:33.801Z,3.15
2022-10-14T15:42:35.626Z,2.63
2022-10-14T15:45:37.685Z,3.20
2022-10-14T15:48:59.588Z,2.70
2022-10-14T15:52:01.465Z,2.70
2022-10-14T15:55:15.740Z,2.90
2022-10-14T15:58:17.456Z,3.07
2022-10-14T16:01:22.479Z,3.20
2022-10-14T16:04:27.673Z,3.95
2022-10-14T16:07:29.538Z,4.38
2022-10-14T16:10:34.369Z,4.30
2022-10-14T16:13:36.732Z,3.93
2022-10-14T16:16:44.709Z,3.67
2022-10-14T16:19:46.548Z,3.60
2022-10-14T16:22:48.977Z,3.60
2022-10-14T16:25:51.019Z,3.05
2022-10-14T16:28:53.204Z,2.97
2022-10-14T16:31:55.516Z,2.80
2022-10-14T16:34:57.256Z,3.00
2022-10-14T16:37:59.240Z,3.30
2022-10-14T16:41:04.145Z,3.92
2022-10-14T16:44:06.374Z,3.60
2022-10-14T16:47:16.303Z,4.50
2022-10-14T16:50:18.389Z,4.43
2022-10-14T16:53:40.325Z,4.28
2022-10-14T16:56:54.166Z,3.97
2022-10-14T16:59:55.904Z,3.80
2022-10-14T17:02:57.634Z,3.47
2022-10-14T17:05:59.485Z,3.92
2022-10-14T17:09:01.216Z,3.67
2022-10-14T17:12:07.959Z,3.83
2022-10-14T17:15:13.003Z,3.90
2022-10-14T17:18:17.785Z,4.20
2022-10-14T17:21:19.948Z,6.70
2022-10-14T17:24:23.294Z,5.22
2022-10-14T17:27:25.041Z,4.60
2022-10-14T17:30:27.303Z,5.50
2022-10-14T17:33:29.137Z,4.50
2022-10-14T17:36:31.218Z,5.30
2022-10-14T17:39:32.947Z,12.30
2022-10-14T17:42:34.788Z,7.60
2022-10-14T17:45:38.224Z,6.20
2022-10-14T17:48:43.541Z,6.07
2022-10-14T17:51:45.335Z,5.68
2022-10-14T17:54:51.485Z,4.82
2022-10-14T17:57:53.447Z,5.20
2022-10-14T18:00:55.286Z,4.68
2022-10-14T18:03:59.149Z,5.13
2022-10-14T18:07:01.076Z,4.93
2022-10-14T18:10:02.971Z,11.85
2022-10-14T18:13:05.141Z,5.20
2022-10-14T18:16:09.921Z,4.93
2022-10-14T18:19:16.726Z,4.97
2022-10-14T18:22:18.552Z,4.90
2022-10-14T18:25:31.757Z,4.72
2022-10-14T18:28:38.358Z,4.97
2022-10-14T18:31:39.987Z,4.78
2022-10-14T18:34:41.559Z,4.82
2022-10-14T18:37:43.185Z,4.47
2022-10-14T18:40:44.705Z,4.60
2022-10-14T18:43:47.052Z,4.60
2022-10-14T18:46:48.729Z,4.90
2022-10-14T18:49:51.037Z,4.50
2022-10-14T18:52:52.667Z,4.65
2022-10-14T18:55:58.039Z,4.70
2022-10-14T18:59:07.081Z,5.13
2022-10-14T19:02:12.971Z,5.05
2022-10-14T19:05:14.876Z,4.93
2022-10-14T19:08:16.472Z,5.07
2022-10-14T19:11:25.207Z,5.18
2022-10-14T19:14:28.666Z,5.20
2022-10-14T19:17:30.385Z,5.05
2022-10-14T19:20:37.134Z,4.80
2022-10-14T19:23:46.476Z,4.82
2022-10-14T19:26:51.451Z,4.65
2022-10-14T19:29:52.955Z,4.53
2022-10-14T19:32:56.856Z,4.60
2022-10-14T19:36:00.016Z,4.68
2022-10-14T19:39:02.119Z,4.97
2022-10-14T19:42:03.781Z,5.15
2022-10-14T19:45:06.053Z,5.00
2022-10-14T19:48:07.751Z,4.90
2022-10-14T19:51:11.498Z,4.90
2022-10-14T19:54:13.627Z,5.05
2022-10-14T19:57:15.178Z,5.40
2022-10-14T20:00:18.886Z,4.68
2022-10-14T20:03:27.759Z,5.00
2022-10-14T20:06:33.762Z,5.95
2022-10-14T20:09:35.377Z,5.30
2022-10-14T20:12:37.514Z,5.53
2022-10-14T20:15:39.213Z,5.10
2022-10-14T20:18:41.158Z,5.05
2022-10-14T20:21:42.811Z,5.05
2022-10-14T20:24:44.493Z,5.70
2022-10-14T20:27:46.050Z,4.90
2022-10-14T20:30:48.352Z,5.28
2022-10-14T20:33:49.982Z,5.13
2022-10-14T20:36:53.172Z,4.82
2022-10-14T20:39:54.707Z,4.60
2022-10-14T20:42:56.620Z,4.70
2022-10-14T20:45:58.543Z,4.80
2022-10-14T20:49:00.185Z,5.15
2022-10-14T20:52:01.686Z,5.18
2022-10-14T20:55:03.329Z,4.95
2022-10-14T20:58:04.928Z,4.32
2022-10-14T21:01:13.937Z,4.35
2022-10-14T21:04:15.583Z,4.35
2022-10-14T21:07:20.672Z,4.40
2022-10-14T21:10:23.133Z,4.20
2022-10-14T21:13:28.370Z,4.45
2022-10-14T21:16:35.317Z,4.80
2022-10-14T21:19:36.896Z,4.60
2022-10-14T21:22:38.579Z,4.63
2022-10-14T21:25:40.286Z,4.07
2022-10-14T21:28:42.716Z,3.83
2022-10-14T21:31:44.592Z,3.75
2022-10-14T21:34:48.713Z,3.60
2022-10-14T21:37:52.730Z,3.63
2022-10-14T21:40:58.131Z,3.40
2022-10-14T21:43:59.674Z,3.63
2022-10-14T21:47:01.315Z,3.53
2022-10-14T21:50:02.948Z,3.50
2022-10-14T21:53:06.741Z,3.28
2022-10-14T21:56:09.548Z,3.27
2022-10-14T21:59:12.116Z,3.35
2022-10-14T22:02:16.227Z,3.20
2022-10-14T22:05:17.779Z,2.80
2022-10-14T22:08:23.753Z,2.70
2022-10-14T22:11:29.843Z,2.50
2022-10-14T22:14:31.560Z,2.60
2022-10-14T22:17:34.287Z,2.60
2022-10-14T22:20:36.097Z,2.35
2022-10-14T22:23:42.068Z,2.28
2022-10-14T22:26:43.609Z,2.10
2022-10-14T22:29:45.114Z,2.20
2022-10-14T22:32:46.633Z,2.05
2022-10-14T22:35:48.164Z,1.92
2022-10-14T22:38:51.190Z,2.20
2022-10-14T22:41:52.901Z,2.00
2022-10-14T22:44:54.886Z,2.00
2022-10-14T22:47:56.529Z,1.88
2022-10-14T22:51:07.429Z,1.85
2022-10-14T22:54:09.768Z,1.90
2022-10-14T22:57:11.286Z,1.80
2022-10-14T23:00:13.613Z,1.90
2022-10-14T23:03:15.230Z,1.90
2022-10-14T23:06:17.271Z,1.77
2022-10-14T23:09:18.843Z,2.00
2022-10-14T23:12:20.703Z,2.05
2022-10-14T23:15:22.424Z,2.00
2022-10-14T23:18:25.824Z,1.80
2022-10-14T23:21:30.284Z,1.90
2022-10-14T23:24:31.797Z,1.90
2022-10-14T23:27:36.428Z,1.88
2022-10-14T23:30:40.742Z,2.40
2022-10-14T23:33:42.883Z,2.30
2022-10-14T23:36:44.551Z,2.00
2022-10-14T23:39:46.103Z,1.90
2022-10-14T23:42:47.655Z,2.35
2022-10-14T23:45:49.224Z,2.10
2022-10-14T23:49:01.218Z,2.40
2022-10-14T23:52:09.590Z,1.92
2022-10-14T23:55:11.284Z,2.00
2022-10-14T23:58:13.032Z,2.13
